lelulove.com alexa rank chart, lelulove.com alexa rank daily changes

lelulove.com alexa rank chart, lelulove.com alexa rank daily changes

lelulove.com
Actual rank:
393 900

RANK HISTORY

Date Rank Diff
2017/11/21 393 900 +11 562
2017/11/20 382 338 +1 324
2017/11/19 381 014 -85
2017/11/18 381 099 +4 399
2017/11/17 376 700 -3 240
2017/11/16 379 940 -12 806
2017/11/15 392 746 +4 869
2017/11/14 387 877 -42 816
2017/11/13 430 693 +5 003
2017/11/12 425 690 -7 479
2017/11/11 433 169 +8 094
2017/11/10 425 075 +630
2017/11/09 424 445 +15 352
2017/11/08 409 093 +14 864
2017/11/07 394 229 -55 646
2017/11/06 449 875 +26 349
2017/11/05 423 526 +5 655
2017/11/04 417 871 -6 568
2017/11/03 424 439 +9 229
2017/11/02 415 210 +18 826
2017/11/01 396 384 +5 106
2017/10/31 391 278 +5 787
2017/10/30 385 491 -2 385
2017/10/29 387 876 -540
2017/10/28 388 416 -134
2017/10/27 388 550 -2 227
2017/10/26 390 777 +8 107
2017/10/25 382 670 -381
2017/10/24 383 051 +7 794
2017/10/23 375 257 +1 443
2017/10/22 373 814 -2 063
2017/10/21 375 877 -2 670
2017/10/20 378 547 +722
2017/10/19 377 825 +8 125
2017/10/18 369 700 +48 851
2017/10/17 320 849 -577
2017/10/16 321 426 +785
2017/10/14 320 641 +5 611
2017/10/13 315 030 -919
2017/10/12 315 949 +8 808
2017/10/11 307 141 +2 776
2017/10/10 304 365 +12 152
2017/10/09 292 213 -1 958
2017/10/08 294 171 +720
2017/10/07 293 451 -6 049
2017/10/06 299 500 +1 541
2017/10/05 297 959 +4 132
2017/10/04 293 827 +810
2017/10/03 293 017 -6 524
2017/10/02 299 541 -6 360
2017/10/01 305 901 -7 023
2017/09/30 312 924 -4 155
2017/09/29 317 079 +5 379
2017/09/28 311 700 -3 073
2017/09/27 314 773 +7 426
2017/09/26 307 347 -7 228
2017/09/25 314 575 -895
2017/09/24 315 470 +4 690
2017/09/23 310 780 -1 514
2017/09/22 312 294

WIDGET FOR YOUR SITE

DOMAINS WITH THE NEAREST RANK

Domain Rank
skyways24.com 393 895
ajaxsearchpro.com 393 896
wheelofbitcoin.com 393 897
radio-banovina.hr 393 898
myflo.ru 393 899
lelulove.com 393 900
lemonilo.com 393 901
technovations.io 393 902
sacm.org.au 393 903
drakeofficial.com 393 904
zewen.club 393 905

DOMAINS WITH THE NEAREST RANK BY TLD .com

Domain Rank
oesell.com 393 887
mikeperham.com 393 892
skyways24.com 393 895
ajaxsearchpro.com 393 896
wheelofbitcoin.com 393 897
lelulove.com 393 900
lemonilo.com 393 901
drakeofficial.com 393 904
secondfloorcafe.com 393 907
fixsitespeed.com 393 908
nexxtsolutions.com 393 909